sensor_id;sensor_type;location;lat;lon;timestamp;P1;durP1;ratioP1;P2;durP2;ratioP2
36353;SDS011;22383;51.114;13.666;2023-04-29T00:01:24;21.38;;;8.65;;
36353;SDS011;22383;51.114;13.666;2023-04-29T00:03:52;21.05;;;10.23;;
36353;SDS011;22383;51.114;13.666;2023-04-29T00:06:19;22.38;;;9.55;;
36353;SDS011;22383;51.114;13.666;2023-04-29T00:08:47;22.48;;;9.75;;
36353;SDS011;22383;51.114;13.666;2023-04-29T00:11:14;27.50;;;10.15;;
36353;SDS011;22383;51.114;13.666;2023-04-29T00:13:42;23.25;;;9.90;;
36353;SDS011;22383;51.114;13.666;2023-04-29T00:16:09;24.00;;;9.88;;
36353;SDS011;22383;51.114;13.666;2023-04-29T00:18:36;33.00;;;11.63;;
36353;SDS011;22383;51.114;13.666;2023-04-29T00:21:04;24.98;;;10.43;;
36353;SDS011;22383;51.114;13.666;2023-04-29T00:23:34;26.67;;;9.23;;
36353;SDS011;22383;51.114;13.666;2023-04-29T00:26:01;30.35;;;11.18;;
36353;SDS011;22383;51.114;13.666;2023-04-29T00:28:29;32.25;;;11.23;;
36353;SDS011;22383;51.114;13.666;2023-04-29T00:30:56;30.73;;;10.50;;
36353;SDS011;22383;51.114;13.666;2023-04-29T00:33:23;23.15;;;10.63;;
36353;SDS011;22383;51.114;13.666;2023-04-29T00:35:51;29.13;;;11.82;;
36353;SDS011;22383;51.114;13.666;2023-04-29T00:38:18;24.90;;;11.50;;
36353;SDS011;22383;51.114;13.666;2023-04-29T00:40:46;29.42;;;11.85;;
36353;SDS011;22383;51.114;13.666;2023-04-29T00:43:14;28.30;;;11.75;;
36353;SDS011;22383;51.114;13.666;2023-04-29T00:45:41;32.20;;;12.93;;
36353;SDS011;22383;51.114;13.666;2023-04-29T00:48:09;32.45;;;11.30;;
36353;SDS011;22383;51.114;13.666;2023-04-29T00:50:36;30.70;;;12.98;;
36353;SDS011;22383;51.114;13.666;2023-04-29T00:53:03;32.08;;;12.50;;
36353;SDS011;22383;51.114;13.666;2023-04-29T00:55:32;26.38;;;11.35;;
36353;SDS011;22383;51.114;13.666;2023-04-29T00:57:59;28.70;;;11.27;;
36353;SDS011;22383;51.114;13.666;2023-04-29T01:00:28;30.35;;;11.48;;
36353;SDS011;22383;51.114;13.666;2023-04-29T01:02:56;32.78;;;12.43;;
36353;SDS011;22383;51.114;13.666;2023-04-29T01:05:25;31.85;;;12.00;;
36353;SDS011;22383;51.114;13.666;2023-04-29T01:10:28;36.58;;;12.68;;
36353;SDS011;22383;51.114;13.666;2023-04-29T01:13:17;28.85;;;12.57;;
36353;SDS011;22383;51.114;13.666;2023-04-29T01:15:54;30.42;;;12.57;;
36353;SDS011;22383;51.114;13.666;2023-04-29T01:21:19;26.30;;;11.57;;
36353;SDS011;22383;51.114;13.666;2023-04-29T01:23:47;29.80;;;11.98;;
36353;SDS011;22383;51.114;13.666;2023-04-29T01:26:19;29.83;;;11.73;;
36353;SDS011;22383;51.114;13.666;2023-04-29T01:29:08;36.63;;;12.32;;
36353;SDS011;22383;51.114;13.666;2023-04-29T01:31:57;33.38;;;11.70;;
36353;SDS011;22383;51.114;13.666;2023-04-29T01:40:22;24.63;;;10.70;;
36353;SDS011;22383;51.114;13.666;2023-04-29T01:43:12;37.25;;;10.43;;
36353;SDS011;22383;51.114;13.666;2023-04-29T01:45:46;33.03;;;12.63;;
36353;SDS011;22383;51.114;13.666;2023-04-29T01:48:15;40.78;;;12.55;;
36353;SDS011;22383;51.114;13.666;2023-04-29T01:50:46;33.83;;;12.93;;
36353;SDS011;22383;51.114;13.666;2023-04-29T01:53:15;30.35;;;11.70;;
36353;SDS011;22383;51.114;13.666;2023-04-29T01:55:44;27.25;;;11.93;;
36353;SDS011;22383;51.114;13.666;2023-04-29T01:58:34;27.70;;;11.38;;
36353;SDS011;22383;51.114;13.666;2023-04-29T02:01:30;28.00;;;10.50;;
36353;SDS011;22383;51.114;13.666;2023-04-29T02:03:58;20.45;;;8.50;;
36353;SDS011;22383;51.114;13.666;2023-04-29T02:06:25;19.70;;;7.63;;
36353;SDS011;22383;51.114;13.666;2023-04-29T02:08:58;18.30;;;8.00;;
36353;SDS011;22383;51.114;13.666;2023-04-29T02:11:25;13.80;;;7.55;;
36353;SDS011;22383;51.114;13.666;2023-04-29T02:13:56;20.92;;;8.02;;
36353;SDS011;22383;51.114;13.666;2023-04-29T02:16:23;14.40;;;7.10;;
36353;SDS011;22383;51.114;13.666;2023-04-29T02:19:00;17.00;;;6.85;;
36353;SDS011;22383;51.114;13.666;2023-04-29T02:21:31;16.70;;;7.28;;
36353;SDS011;22383;51.114;13.666;2023-04-29T02:24:01;17.35;;;6.72;;
36353;SDS011;22383;51.114;13.666;2023-04-29T02:26:30;13.45;;;6.55;;
36353;SDS011;22383;51.114;13.666;2023-04-29T02:29:01;18.17;;;7.07;;
36353;SDS011;22383;51.114;13.666;2023-04-29T02:31:35;14.18;;;7.32;;
36353;SDS011;22383;51.114;13.666;2023-04-29T02:34:04;18.80;;;6.78;;
36353;SDS011;22383;51.114;13.666;2023-04-29T02:36:33;16.58;;;6.90;;
36353;SDS011;22383;51.114;13.666;2023-04-29T02:39:01;17.85;;;7.57;;
36353;SDS011;22383;51.114;13.666;2023-04-29T02:41:28;19.45;;;7.32;;
36353;SDS011;22383;51.114;13.666;2023-04-29T02:43:55;18.90;;;6.95;;
36353;SDS011;22383;51.114;13.666;2023-04-29T02:46:23;15.95;;;6.53;;
36353;SDS011;22383;51.114;13.666;2023-04-29T02:48:51;17.08;;;7.72;;
36353;SDS011;22383;51.114;13.666;2023-04-29T02:51:19;16.10;;;7.10;;
36353;SDS011;22383;51.114;13.666;2023-04-29T02:53:46;15.63;;;6.38;;
36353;SDS011;22383;51.114;13.666;2023-04-29T02:56:14;17.20;;;6.60;;
36353;SDS011;22383;51.114;13.666;2023-04-29T02:58:41;22.77;;;7.00;;
36353;SDS011;22383;51.114;13.666;2023-04-29T03:01:08;21.85;;;7.63;;
36353;SDS011;22383;51.114;13.666;2023-04-29T03:03:37;15.98;;;7.20;;
36353;SDS011;22383;51.114;13.666;2023-04-29T03:06:04;15.48;;;7.40;;
36353;SDS011;22383;51.114;13.666;2023-04-29T03:08:31;21.08;;;7.05;;
36353;SDS011;22383;51.114;13.666;2023-04-29T03:10:59;21.88;;;8.80;;
36353;SDS011;22383;51.114;13.666;2023-04-29T03:13:26;15.57;;;6.22;;
36353;SDS011;22383;51.114;13.666;2023-04-29T03:15:53;15.93;;;6.78;;
36353;SDS011;22383;51.114;13.666;2023-04-29T03:18:23;19.08;;;6.90;;
36353;SDS011;22383;51.114;13.666;2023-04-29T03:20:50;18.02;;;6.35;;
36353;SDS011;22383;51.114;13.666;2023-04-29T03:25:46;11.00;;;4.47;;
36353;SDS011;22383;51.114;13.666;2023-04-29T03:28:13;10.68;;;4.78;;
36353;SDS011;22383;51.114;13.666;2023-04-29T03:30:41;7.97;;;3.45;;
36353;SDS011;22383;51.114;13.666;2023-04-29T03:33:08;11.65;;;3.95;;
36353;SDS011;22383;51.114;13.666;2023-04-29T03:35:36;9.57;;;3.38;;
36353;SDS011;22383;51.114;13.666;2023-04-29T03:38:08;8.40;;;3.72;;
36353;SDS011;22383;51.114;13.666;2023-04-29T03:40:37;9.93;;;3.50;;
36353;SDS011;22383;51.114;13.666;2023-04-29T03:43:04;12.75;;;4.25;;
36353;SDS011;22383;51.114;13.666;2023-04-29T03:45:35;12.45;;;5.05;;
36353;SDS011;22383;51.114;13.666;2023-04-29T03:48:05;10.50;;;4.60;;
36353;SDS011;22383;51.114;13.666;2023-04-29T03:50:32;11.82;;;6.18;;
36353;SDS011;22383;51.114;13.666;2023-04-29T03:52:59;9.57;;;4.43;;
36353;SDS011;22383;51.114;13.666;2023-04-29T03:55:27;8.35;;;3.88;;
36353;SDS011;22383;51.114;13.666;2023-04-29T03:57:55;10.85;;;4.88;;
36353;SDS011;22383;51.114;13.666;2023-04-29T04:00:22;6.53;;;3.38;;
36353;SDS011;22383;51.114;13.666;2023-04-29T04:02:54;12.73;;;4.53;;
36353;SDS011;22383;51.114;13.666;2023-04-29T04:05:22;8.95;;;4.00;;
36353;SDS011;22383;51.114;13.666;2023-04-29T04:07:55;10.27;;;4.88;;
36353;SDS011;22383;51.114;13.666;2023-04-29T04:10:41;10.88;;;4.53;;
36353;SDS011;22383;51.114;13.666;2023-04-29T04:13:19;15.15;;;6.07;;
36353;SDS011;22383;51.114;13.666;2023-04-29T04:15:50;14.05;;;5.25;;
36353;SDS011;22383;51.114;13.666;2023-04-29T04:18:18;14.35;;;5.30;;
36353;SDS011;22383;51.114;13.666;2023-04-29T04:20:45;12.70;;;5.43;;
36353;SDS011;22383;51.114;13.666;2023-04-29T04:23:13;11.63;;;5.22;;
36353;SDS011;22383;51.114;13.666;2023-04-29T04:25:43;10.73;;;5.85;;
36353;SDS011;22383;51.114;13.666;2023-04-29T04:28:33;12.23;;;5.63;;
36353;SDS011;22383;51.114;13.666;2023-04-29T04:31:05;16.50;;;6.45;;
36353;SDS011;22383;51.114;13.666;2023-04-29T04:33:34;14.35;;;5.88;;
36353;SDS011;22383;51.114;13.666;2023-04-29T04:36:02;15.07;;;5.57;;
36353;SDS011;22383;51.114;13.666;2023-04-29T04:38:30;12.20;;;5.30;;
36353;SDS011;22383;51.114;13.666;2023-04-29T04:41:01;14.00;;;6.07;;
36353;SDS011;22383;51.114;13.666;2023-04-29T04:43:35;14.40;;;5.78;;
36353;SDS011;22383;51.114;13.666;2023-04-29T04:46:10;13.85;;;5.85;;
36353;SDS011;22383;51.114;13.666;2023-04-29T04:48:52;19.45;;;7.03;;
36353;SDS011;22383;51.114;13.666;2023-04-29T04:51:20;16.42;;;6.88;;
36353;SDS011;22383;51.114;13.666;2023-04-29T04:53:48;15.75;;;5.97;;
36353;SDS011;22383;51.114;13.666;2023-04-29T04:56:21;14.68;;;6.97;;
36353;SDS011;22383;51.114;13.666;2023-04-29T04:58:50;16.27;;;7.22;;
36353;SDS011;22383;51.114;13.666;2023-04-29T05:01:17;18.10;;;7.07;;
36353;SDS011;22383;51.114;13.666;2023-04-29T05:03:45;23.88;;;8.38;;
36353;SDS011;22383;51.114;13.666;2023-04-29T05:06:13;19.02;;;8.18;;
36353;SDS011;22383;51.114;13.666;2023-04-29T05:08:44;16.30;;;6.80;;
36353;SDS011;22383;51.114;13.666;2023-04-29T05:11:16;20.83;;;8.23;;
36353;SDS011;22383;51.114;13.666;2023-04-29T05:13:56;20.90;;;7.82;;
36353;SDS011;22383;51.114;13.666;2023-04-29T05:16:24;21.77;;;8.85;;
36353;SDS011;22383;51.114;13.666;2023-04-29T05:18:53;22.77;;;9.70;;
36353;SDS011;22383;51.114;13.666;2023-04-29T05:21:24;21.13;;;9.02;;
36353;SDS011;22383;51.114;13.666;2023-04-29T05:23:51;25.10;;;8.55;;
36353;SDS011;22383;51.114;13.666;2023-04-29T05:26:19;23.25;;;9.07;;
36353;SDS011;22383;51.114;13.666;2023-04-29T05:28:47;21.63;;;9.73;;
36353;SDS011;22383;51.114;13.666;2023-04-29T05:31:17;22.02;;;8.45;;
36353;SDS011;22383;51.114;13.666;2023-04-29T05:33:44;19.02;;;8.13;;
36353;SDS011;22383;51.114;13.666;2023-04-29T05:36:12;18.52;;;7.97;;
36353;SDS011;22383;51.114;13.666;2023-04-29T05:38:39;20.60;;;9.13;;
36353;SDS011;22383;51.114;13.666;2023-04-29T05:41:08;23.40;;;9.35;;
36353;SDS011;22383;51.114;13.666;2023-04-29T05:43:55;22.38;;;8.00;;
36353;SDS011;22383;51.114;13.666;2023-04-29T05:46:24;18.50;;;8.45;;
36353;SDS011;22383;51.114;13.666;2023-04-29T05:48:52;25.05;;;9.05;;
36353;SDS011;22383;51.114;13.666;2023-04-29T05:51:20;27.40;;;10.05;;
36353;SDS011;22383;51.114;13.666;2023-04-29T05:53:48;20.95;;;9.25;;
36353;SDS011;22383;51.114;13.666;2023-04-29T05:56:17;21.40;;;8.98;;
36353;SDS011;22383;51.114;13.666;2023-04-29T05:58:45;16.42;;;7.45;;
36353;SDS011;22383;51.114;13.666;2023-04-29T06:01:12;16.45;;;6.45;;
36353;SDS011;22383;51.114;13.666;2023-04-29T06:03:40;18.48;;;7.75;;
36353;SDS011;22383;51.114;13.666;2023-04-29T06:06:24;20.50;;;8.13;;
36353;SDS011;22383;51.114;13.666;2023-04-29T06:09:21;18.75;;;8.38;;
36353;SDS011;22383;51.114;13.666;2023-04-29T06:12:00;19.00;;;8.05;;
36353;SDS011;22383;51.114;13.666;2023-04-29T06:14:27;23.13;;;8.55;;
36353;SDS011;22383;51.114;13.666;2023-04-29T06:16:55;19.92;;;7.93;;
36353;SDS011;22383;51.114;13.666;2023-04-29T06:19:23;21.17;;;7.13;;
36353;SDS011;22383;51.114;13.666;2023-04-29T06:21:52;17.88;;;7.88;;
36353;SDS011;22383;51.114;13.666;2023-04-29T06:24:19;15.05;;;7.47;;
36353;SDS011;22383;51.114;13.666;2023-04-29T06:26:46;20.45;;;8.00;;
36353;SDS011;22383;51.114;13.666;2023-04-29T06:29:15;17.20;;;8.15;;
36353;SDS011;22383;51.114;13.666;2023-04-29T06:34:10;19.08;;;7.53;;
36353;SDS011;22383;51.114;13.666;2023-04-29T06:39:34;18.17;;;6.68;;
36353;SDS011;22383;51.114;13.666;2023-04-29T06:42:22;18.52;;;7.55;;
36353;SDS011;22383;51.114;13.666;2023-04-29T06:45:09;18.50;;;7.65;;
36353;SDS011;22383;51.114;13.666;2023-04-29T06:47:54;16.75;;;6.97;;
36353;SDS011;22383;51.114;13.666;2023-04-29T06:50:36;16.95;;;7.00;;
36353;SDS011;22383;51.114;13.666;2023-04-29T06:53:06;20.48;;;8.27;;
36353;SDS011;22383;51.114;13.666;2023-04-29T06:55:34;18.40;;;6.57;;
36353;SDS011;22383;51.114;13.666;2023-04-29T06:58:02;20.45;;;8.20;;
36353;SDS011;22383;51.114;13.666;2023-04-29T07:00:30;20.27;;;7.00;;
36353;SDS011;22383;51.114;13.666;2023-04-29T07:02:58;23.02;;;8.70;;
36353;SDS011;22383;51.114;13.666;2023-04-29T07:05:25;24.00;;;8.18;;
36353;SDS011;22383;51.114;13.666;2023-04-29T07:07:53;18.92;;;8.10;;
36353;SDS011;22383;51.114;13.666;2023-04-29T07:10:21;22.13;;;8.43;;
36353;SDS011;22383;51.114;13.666;2023-04-29T07:12:48;25.58;;;9.48;;
36353;SDS011;22383;51.114;13.666;2023-04-29T07:15:15;23.55;;;10.10;;
36353;SDS011;22383;51.114;13.666;2023-04-29T07:20:11;19.42;;;7.07;;
36353;SDS011;22383;51.114;13.666;2023-04-29T07:22:39;22.83;;;9.10;;
36353;SDS011;22383;51.114;13.666;2023-04-29T07:25:07;22.70;;;8.88;;
36353;SDS011;22383;51.114;13.666;2023-04-29T07:27:36;23.55;;;8.60;;
36353;SDS011;22383;51.114;13.666;2023-04-29T07:30:04;25.15;;;9.20;;
36353;SDS011;22383;51.114;13.666;2023-04-29T07:32:32;23.73;;;8.27;;
36353;SDS011;22383;51.114;13.666;2023-04-29T07:35:03;23.65;;;8.82;;
36353;SDS011;22383;51.114;13.666;2023-04-29T07:37:30;25.08;;;8.45;;
36353;SDS011;22383;51.114;13.666;2023-04-29T07:39:59;16.75;;;7.20;;
36353;SDS011;22383;51.114;13.666;2023-04-29T07:42:27;21.63;;;7.93;;
36353;SDS011;22383;51.114;13.666;2023-04-29T07:47:22;15.45;;;7.15;;
36353;SDS011;22383;51.114;13.666;2023-04-29T07:49:51;16.92;;;6.75;;
36353;SDS011;22383;51.114;13.666;2023-04-29T07:54:48;12.48;;;5.97;;
36353;SDS011;22383;51.114;13.666;2023-04-29T07:57:17;16.50;;;7.05;;
36353;SDS011;22383;51.114;13.666;2023-04-29T07:59:45;21.25;;;7.93;;
36353;SDS011;22383;51.114;13.666;2023-04-29T08:02:12;16.42;;;6.80;;
36353;SDS011;22383;51.114;13.666;2023-04-29T08:04:41;17.55;;;6.47;;
36353;SDS011;22383;51.114;13.666;2023-04-29T08:07:11;17.67;;;6.88;;
36353;SDS011;22383;51.114;13.666;2023-04-29T08:09:39;16.67;;;7.15;;
36353;SDS011;22383;51.114;13.666;2023-04-29T08:12:09;19.27;;;7.25;;
36353;SDS011;22383;51.114;13.666;2023-04-29T08:14:39;14.00;;;6.55;;
36353;SDS011;22383;51.114;13.666;2023-04-29T08:17:07;16.00;;;7.05;;
36353;SDS011;22383;51.114;13.666;2023-04-29T08:19:34;11.15;;;5.38;;
36353;SDS011;22383;51.114;13.666;2023-04-29T08:22:02;12.45;;;6.18;;
36353;SDS011;22383;51.114;13.666;2023-04-29T08:24:30;14.73;;;6.22;;
36353;SDS011;22383;51.114;13.666;2023-04-29T08:26:59;12.95;;;5.53;;
36353;SDS011;22383;51.114;13.666;2023-04-29T08:31:58;12.85;;;6.07;;
36353;SDS011;22383;51.114;13.666;2023-04-29T08:34:26;8.18;;;5.00;;
36353;SDS011;22383;51.114;13.666;2023-04-29T08:39:23;12.77;;;6.60;;
36353;SDS011;22383;51.114;13.666;2023-04-29T08:41:50;14.70;;;6.68;;
36353;SDS011;22383;51.114;13.666;2023-04-29T08:44:19;11.10;;;5.55;;
36353;SDS011;22383;51.114;13.666;2023-04-29T08:46:47;16.30;;;5.70;;
36353;SDS011;22383;51.114;13.666;2023-04-29T08:49:16;13.20;;;5.65;;
36353;SDS011;22383;51.114;13.666;2023-04-29T08:54:11;11.52;;;4.63;;
36353;SDS011;22383;51.114;13.666;2023-04-29T08:56:38;13.93;;;5.53;;
36353;SDS011;22383;51.114;13.666;2023-04-29T09:01:54;12.35;;;4.38;;
36353;SDS011;22383;51.114;13.666;2023-04-29T09:04:46;11.30;;;4.65;;
36353;SDS011;22383;51.114;13.666;2023-04-29T09:07:21;10.05;;;5.05;;
36353;SDS011;22383;51.114;13.666;2023-04-29T09:09:50;11.20;;;4.30;;
36353;SDS011;22383;51.114;13.666;2023-04-29T09:12:19;10.25;;;4.18;;
36353;SDS011;22383;51.114;13.666;2023-04-29T09:14:47;12.13;;;4.13;;
36353;SDS011;22383;51.114;13.666;2023-04-29T09:17:15;9.57;;;4.70;;
36353;SDS011;22383;51.114;13.666;2023-04-29T09:19:43;11.55;;;5.25;;
36353;SDS011;22383;51.114;13.666;2023-04-29T09:24:38;11.02;;;4.68;;
36353;SDS011;22383;51.114;13.666;2023-04-29T09:29:33;10.82;;;4.35;;
36353;SDS011;22383;51.114;13.666;2023-04-29T09:32:17;9.05;;;4.10;;
36353;SDS011;22383;51.114;13.666;2023-04-29T09:34:45;10.82;;;4.50;;
36353;SDS011;22383;51.114;13.666;2023-04-29T09:37:23;12.23;;;5.05;;
36353;SDS011;22383;51.114;13.666;2023-04-29T09:39:52;10.45;;;4.25;;
36353;SDS011;22383;51.114;13.666;2023-04-29T09:42:20;11.80;;;4.82;;
36353;SDS011;22383;51.114;13.666;2023-04-29T09:44:48;12.57;;;5.50;;
36353;SDS011;22383;51.114;13.666;2023-04-29T09:47:16;11.73;;;4.90;;
36353;SDS011;22383;51.114;13.666;2023-04-29T09:49:44;10.13;;;4.35;;
36353;SDS011;22383;51.114;13.666;2023-04-29T09:54:40;11.10;;;4.68;;
36353;SDS011;22383;51.114;13.666;2023-04-29T09:57:10;14.98;;;5.00;;
36353;SDS011;22383;51.114;13.666;2023-04-29T09:59:41;14.10;;;5.97;;
36353;SDS011;22383;51.114;13.666;2023-04-29T10:02:13;12.45;;;5.13;;
36353;SDS011;22383;51.114;13.666;2023-04-29T10:04:46;14.13;;;6.07;;
36353;SDS011;22383;51.114;13.666;2023-04-29T10:07:20;12.07;;;5.57;;
36353;SDS011;22383;51.114;13.666;2023-04-29T10:09:48;15.57;;;6.68;;
36353;SDS011;22383;51.114;13.666;2023-04-29T10:12:17;13.40;;;6.35;;
36353;SDS011;22383;51.114;13.666;2023-04-29T10:14:48;14.05;;;5.90;;
36353;SDS011;22383;51.114;13.666;2023-04-29T10:20:28;17.92;;;6.70;;
36353;SDS011;22383;51.114;13.666;2023-04-29T10:25:24;13.73;;;6.28;;
36353;SDS011;22383;51.114;13.666;2023-04-29T10:27:54;18.10;;;6.97;;
36353;SDS011;22383;51.114;13.666;2023-04-29T10:30:22;19.95;;;7.45;;
36353;SDS011;22383;51.114;13.666;2023-04-29T10:32:50;18.08;;;6.45;;
36353;SDS011;22383;51.114;13.666;2023-04-29T10:35:19;16.60;;;6.75;;
36353;SDS011;22383;51.114;13.666;2023-04-29T10:37:52;19.55;;;7.68;;
36353;SDS011;22383;51.114;13.666;2023-04-29T10:40:37;18.17;;;7.30;;
36353;SDS011;22383;51.114;13.666;2023-04-29T10:43:08;14.35;;;5.95;;
36353;SDS011;22383;51.114;13.666;2023-04-29T10:45:36;19.23;;;6.75;;
36353;SDS011;22383;51.114;13.666;2023-04-29T10:48:08;20.13;;;7.47;;
36353;SDS011;22383;51.114;13.666;2023-04-29T10:53:15;17.07;;;6.83;;
36353;SDS011;22383;51.114;13.666;2023-04-29T10:59:09;15.82;;;6.55;;
36353;SDS011;22383;51.114;13.666;2023-04-29T11:01:47;18.63;;;7.32;;
36353;SDS011;22383;51.114;13.666;2023-04-29T11:04:22;19.63;;;6.97;;
36353;SDS011;22383;51.114;13.666;2023-04-29T11:06:51;16.83;;;6.85;;
36353;SDS011;22383;51.114;13.666;2023-04-29T11:12:00;13.30;;;6.43;;
36353;SDS011;22383;51.114;13.666;2023-04-29T11:14:36;14.80;;;6.82;;
36353;SDS011;22383;51.114;13.666;2023-04-29T11:17:10;15.52;;;5.72;;
36353;SDS011;22383;51.114;13.666;2023-04-29T11:19:40;11.00;;;5.85;;
36353;SDS011;22383;51.114;13.666;2023-04-29T11:24:50;13.93;;;6.30;;
36353;SDS011;22383;51.114;13.666;2023-04-29T11:27:20;11.55;;;5.43;;
36353;SDS011;22383;51.114;13.666;2023-04-29T11:29:52;8.93;;;4.85;;
36353;SDS011;22383;51.114;13.666;2023-04-29T11:32:26;9.48;;;4.70;;
36353;SDS011;22383;51.114;13.666;2023-04-29T11:35:10;9.15;;;5.25;;
36353;SDS011;22383;51.114;13.666;2023-04-29T11:37:40;11.27;;;4.78;;
36353;SDS011;22383;51.114;13.666;2023-04-29T11:40:09;8.32;;;4.13;;
36353;SDS011;22383;51.114;13.666;2023-04-29T11:42:45;8.32;;;5.03;;
36353;SDS011;22383;51.114;13.666;2023-04-29T11:45:15;8.50;;;4.43;;
36353;SDS011;22383;51.114;13.666;2023-04-29T11:47:45;9.60;;;3.67;;
36353;SDS011;22383;51.114;13.666;2023-04-29T11:50:14;7.68;;;4.05;;
36353;SDS011;22383;51.114;13.666;2023-04-29T11:52:46;7.93;;;3.72;;
36353;SDS011;22383;51.114;13.666;2023-04-29T11:55:15;7.20;;;4.68;;
36353;SDS011;22383;51.114;13.666;2023-04-29T11:57:47;8.40;;;3.88;;
36353;SDS011;22383;51.114;13.666;2023-04-29T12:00:18;6.88;;;4.28;;
36353;SDS011;22383;51.114;13.666;2023-04-29T12:02:46;6.30;;;3.70;;
36353;SDS011;22383;51.114;13.666;2023-04-29T12:05:15;7.55;;;4.05;;
36353;SDS011;22383;51.114;13.666;2023-04-29T12:07:43;7.90;;;3.97;;
36353;SDS011;22383;51.114;13.666;2023-04-29T12:10:11;9.98;;;4.68;;
36353;SDS011;22383;51.114;13.666;2023-04-29T12:12:39;9.50;;;4.63;;
36353;SDS011;22383;51.114;13.666;2023-04-29T12:15:08;11.40;;;5.55;;
36353;SDS011;22383;51.114;13.666;2023-04-29T12:17:37;12.10;;;6.55;;
36353;SDS011;22383;51.114;13.666;2023-04-29T12:20:05;12.07;;;5.82;;
36353;SDS011;22383;51.114;13.666;2023-04-29T12:22:36;15.13;;;6.75;;
36353;SDS011;22383;51.114;13.666;2023-04-29T12:25:05;12.57;;;6.53;;
36353;SDS011;22383;51.114;13.666;2023-04-29T12:27:38;13.68;;;6.57;;
36353;SDS011;22383;51.114;13.666;2023-04-29T12:30:11;11.98;;;6.30;;
36353;SDS011;22383;51.114;13.666;2023-04-29T12:32:56;12.45;;;6.25;;
36353;SDS011;22383;51.114;13.666;2023-04-29T12:35:24;11.68;;;6.28;;
36353;SDS011;22383;51.114;13.666;2023-04-29T12:37:53;12.65;;;5.88;;
36353;SDS011;22383;51.114;13.666;2023-04-29T12:40:21;9.45;;;5.45;;
36353;SDS011;22383;51.114;13.666;2023-04-29T12:42:49;11.93;;;6.45;;
36353;SDS011;22383;51.114;13.666;2023-04-29T12:47:55;11.43;;;5.63;;
36353;SDS011;22383;51.114;13.666;2023-04-29T12:50:34;11.85;;;6.38;;
36353;SDS011;22383;51.114;13.666;2023-04-29T12:53:04;12.90;;;5.82;;
36353;SDS011;22383;51.114;13.666;2023-04-29T12:55:37;11.02;;;6.00;;
36353;SDS011;22383;51.114;13.666;2023-04-29T12:58:05;12.05;;;5.55;;
36353;SDS011;22383;51.114;13.666;2023-04-29T13:00:33;15.48;;;6.68;;
36353;SDS011;22383;51.114;13.666;2023-04-29T13:03:03;9.93;;;5.43;;
36353;SDS011;22383;51.114;13.666;2023-04-29T13:05:31;16.35;;;6.80;;
36353;SDS011;22383;51.114;13.666;2023-04-29T13:07:59;14.70;;;6.50;;
36353;SDS011;22383;51.114;13.666;2023-04-29T13:10:28;21.40;;;8.13;;
36353;SDS011;22383;51.114;13.666;2023-04-29T13:12:55;17.42;;;7.95;;
36353;SDS011;22383;51.114;13.666;2023-04-29T13:15:26;16.63;;;7.90;;
36353;SDS011;22383;51.114;13.666;2023-04-29T13:17:54;19.35;;;8.23;;
36353;SDS011;22383;51.114;13.666;2023-04-29T13:20:21;21.98;;;7.70;;
36353;SDS011;22383;51.114;13.666;2023-04-29T13:27:44;23.73;;;8.50;;
36353;SDS011;22383;51.114;13.666;2023-04-29T13:32:40;21.00;;;8.25;;
36353;SDS011;22383;51.114;13.666;2023-04-29T13:35:18;27.75;;;8.00;;
36353;SDS011;22383;51.114;13.666;2023-04-29T13:37:45;27.85;;;8.88;;
36353;SDS011;22383;51.114;13.666;2023-04-29T13:40:14;26.52;;;9.50;;
36353;SDS011;22383;51.114;13.666;2023-04-29T13:42:47;29.15;;;10.38;;
36353;SDS011;22383;51.114;13.666;2023-04-29T13:45:32;26.83;;;9.55;;
36353;SDS011;22383;51.114;13.666;2023-04-29T13:48:09;22.52;;;9.10;;
36353;SDS011;22383;51.114;13.666;2023-04-29T13:50:57;25.90;;;8.82;;
36353;SDS011;22383;51.114;13.666;2023-04-29T13:53:28;29.35;;;10.13;;
36353;SDS011;22383;51.114;13.666;2023-04-29T13:55:59;26.58;;;9.25;;
36353;SDS011;22383;51.114;13.666;2023-04-29T13:58:46;22.60;;;9.82;;
36353;SDS011;22383;51.114;13.666;2023-04-29T14:01:30;33.20;;;8.93;;
36353;SDS011;22383;51.114;13.666;2023-04-29T14:04:00;22.35;;;8.90;;
36353;SDS011;22383;51.114;13.666;2023-04-29T14:06:29;21.98;;;9.88;;
36353;SDS011;22383;51.114;13.666;2023-04-29T14:08:58;25.35;;;10.55;;
36353;SDS011;22383;51.114;13.666;2023-04-29T14:11:30;24.45;;;10.55;;
36353;SDS011;22383;51.114;13.666;2023-04-29T14:14:03;30.30;;;9.10;;
36353;SDS011;22383;51.114;13.666;2023-04-29T14:16:30;24.25;;;9.82;;
36353;SDS011;22383;51.114;13.666;2023-04-29T14:18:59;25.85;;;8.85;;
36353;SDS011;22383;51.114;13.666;2023-04-29T14:21:29;26.15;;;9.50;;
36353;SDS011;22383;51.114;13.666;2023-04-29T14:24:00;28.17;;;9.23;;
36353;SDS011;22383;51.114;13.666;2023-04-29T14:26:30;30.33;;;9.95;;
36353;SDS011;22383;51.114;13.666;2023-04-29T14:28:58;25.95;;;8.88;;
36353;SDS011;22383;51.114;13.666;2023-04-29T14:31:28;24.00;;;9.35;;
36353;SDS011;22383;51.114;13.666;2023-04-29T14:33:59;25.20;;;9.27;;
36353;SDS011;22383;51.114;13.666;2023-04-29T14:36:27;21.63;;;9.70;;
36353;SDS011;22383;51.114;13.666;2023-04-29T14:38:55;25.02;;;9.63;;
36353;SDS011;22383;51.114;13.666;2023-04-29T14:41:25;27.23;;;10.38;;
36353;SDS011;22383;51.114;13.666;2023-04-29T14:43:53;20.60;;;9.25;;
36353;SDS011;22383;51.114;13.666;2023-04-29T14:48:49;18.88;;;8.23;;
36353;SDS011;22383;51.114;13.666;2023-04-29T14:51:16;27.52;;;10.65;;
36353;SDS011;22383;51.114;13.666;2023-04-29T14:53:44;25.02;;;9.95;;
36353;SDS011;22383;51.114;13.666;2023-04-29T14:56:12;22.75;;;8.93;;
36353;SDS011;22383;51.114;13.666;2023-04-29T15:01:07;23.58;;;9.52;;
36353;SDS011;22383;51.114;13.666;2023-04-29T15:03:35;24.83;;;9.98;;
36353;SDS011;22383;51.114;13.666;2023-04-29T15:06:10;25.27;;;10.15;;
36353;SDS011;22383;51.114;13.666;2023-04-29T15:08:38;25.98;;;10.52;;
36353;SDS011;22383;51.114;13.666;2023-04-29T15:11:06;21.33;;;9.88;;
36353;SDS011;22383;51.114;13.666;2023-04-29T15:13:34;26.02;;;10.15;;
36353;SDS011;22383;51.114;13.666;2023-04-29T15:16:01;30.23;;;10.50;;
36353;SDS011;22383;51.114;13.666;2023-04-29T15:18:30;28.75;;;9.38;;
36353;SDS011;22383;51.114;13.666;2023-04-29T15:20:57;17.55;;;8.50;;
36353;SDS011;22383;51.114;13.666;2023-04-29T15:23:25;20.58;;;8.27;;
36353;SDS011;22383;51.114;13.666;2023-04-29T15:25:52;22.65;;;9.52;;
36353;SDS011;22383;51.114;13.666;2023-04-29T15:28:20;19.48;;;9.32;;
36353;SDS011;22383;51.114;13.666;2023-04-29T15:30:50;20.08;;;9.82;;
36353;SDS011;22383;51.114;13.666;2023-04-29T15:33:18;25.35;;;9.80;;
36353;SDS011;22383;51.114;13.666;2023-04-29T15:35:45;22.90;;;9.68;;
36353;SDS011;22383;51.114;13.666;2023-04-29T15:38:13;18.17;;;7.55;;
36353;SDS011;22383;51.114;13.666;2023-04-29T15:40:40;21.33;;;9.60;;
36353;SDS011;22383;51.114;13.666;2023-04-29T15:43:08;21.98;;;9.95;;
36353;SDS011;22383;51.114;13.666;2023-04-29T15:45:36;27.88;;;9.32;;
36353;SDS011;22383;51.114;13.666;2023-04-29T15:48:04;25.75;;;9.90;;
36353;SDS011;22383;51.114;13.666;2023-04-29T15:50:32;20.73;;;9.05;;
36353;SDS011;22383;51.114;13.666;2023-04-29T15:53:02;22.13;;;10.15;;
36353;SDS011;22383;51.114;13.666;2023-04-29T15:55:30;24.48;;;10.07;;